createdAt,value
2019-05-23T00:01:01.968Z,9.14
2019-05-23T00:04:12.376Z,9.11
2019-05-23T00:07:18.817Z,9.07
2019-05-23T00:10:36.502Z,9.04
2019-05-23T00:14:00.763Z,9.03
2019-05-23T00:17:05.260Z,9.02
2019-05-23T00:20:10.148Z,9.00
2019-05-23T00:23:15.427Z,8.99
2019-05-23T00:26:19.441Z,8.98
2019-05-23T00:29:25.772Z,8.99
2019-05-23T00:32:37.345Z,8.99
2019-05-23T00:35:42.422Z,8.98
2019-05-23T00:38:47.649Z,8.98
2019-05-23T00:41:53.993Z,8.97
2019-05-23T00:44:58.983Z,8.95
2019-05-23T00:48:04.278Z,8.92
2019-05-23T00:51:09.955Z,8.91
2019-05-23T00:54:14.584Z,8.96
2019-05-23T00:57:20.455Z,9.01
2019-05-23T01:00:25.997Z,9.07
2019-05-23T01:03:32.189Z,9.13
2019-05-23T01:06:37.398Z,9.18
2019-05-23T01:09:42.882Z,9.28
2019-05-23T01:12:48.422Z,9.37
2019-05-23T01:15:53.766Z,9.47
2019-05-23T01:18:57.881Z,9.56
2019-05-23T01:22:05.205Z,9.67
2019-05-23T01:25:11.995Z,9.71
2019-05-23T01:28:16.388Z,9.75
2019-05-23T01:31:24.085Z,9.79
2019-05-23T01:34:29.541Z,9.83
2019-05-23T01:37:33.471Z,9.85
2019-05-23T01:40:37.973Z,9.80
2019-05-23T01:43:42.407Z,9.76
2019-05-23T01:46:46.822Z,9.76
2019-05-23T01:49:51.429Z,9.73
2019-05-23T01:52:55.978Z,9.77
2019-05-23T01:56:00.165Z,9.77
2019-05-23T01:59:04.485Z,9.79
2019-05-23T02:02:09.048Z,9.79
2019-05-23T02:05:15.170Z,9.82
2019-05-23T02:08:19.454Z,9.81
2019-05-23T02:11:24.505Z,9.83
2019-05-23T02:14:28.696Z,9.85
2019-05-23T02:17:33.554Z,9.87
2019-05-23T02:20:38.242Z,9.84
2019-05-23T02:23:43.234Z,9.86
2019-05-23T02:26:48.133Z,9.86
2019-05-23T02:29:52.554Z,9.84
2019-05-23T02:32:57.535Z,9.79
2019-05-23T02:36:01.547Z,9.73
2019-05-23T02:39:20.154Z,9.66
2019-05-23T02:42:43.818Z,9.63
2019-05-23T02:45:51.935Z,9.57
2019-05-23T02:48:58.904Z,9.56
2019-05-23T02:52:28.557Z,9.52
2019-05-23T02:55:37.533Z,9.50
2019-05-23T02:59:05.255Z,9.49
2019-05-23T03:02:39.789Z,9.52
2019-05-23T03:05:44.822Z,9.54
2019-05-23T03:08:49.220Z,9.52
2019-05-23T03:11:59.127Z,9.47
2019-05-23T03:15:03.927Z,9.42
2019-05-23T03:18:10.198Z,9.42
2019-05-23T03:21:15.815Z,9.40
2019-05-23T03:24:22.110Z,9.41
2019-05-23T03:27:26.882Z,9.36
2019-05-23T03:30:33.395Z,9.29
2019-05-23T03:33:38.404Z,9.30
2019-05-23T03:36:44.150Z,9.36
2019-05-23T03:39:49.379Z,9.42
2019-05-23T03:42:53.495Z,9.44
2019-05-23T03:46:02.240Z,9.47
2019-05-23T03:49:08.636Z,9.49
2019-05-23T03:52:14.993Z,9.51
2019-05-23T03:55:20.870Z,9.45
2019-05-23T03:58:25.370Z,9.50
2019-05-23T04:01:46.703Z,9.51
2019-05-23T04:04:39.715Z,9.48
2019-05-23T04:07:44.505Z,9.47
2019-05-23T04:10:51.642Z,9.55
2019-05-23T04:13:55.379Z,9.56
2019-05-23T04:16:59.764Z,9.52
2019-05-23T04:20:05.068Z,9.54
2019-05-23T04:23:09.378Z,9.57
2019-05-23T04:26:14.194Z,9.60
2019-05-23T04:29:18.766Z,9.63
2019-05-23T04:32:23.094Z,9.63
2019-05-23T04:35:27.570Z,9.63
2019-05-23T04:38:35.825Z,9.66
2019-05-23T04:41:38.119Z,9.67
2019-05-23T04:44:44.427Z,9.71
2019-05-23T04:47:48.693Z,9.80
2019-05-23T04:50:53.792Z,9.90
2019-05-23T04:53:57.977Z,9.93
2019-05-23T04:57:03.430Z,10.01
2019-05-23T05:00:09.232Z,10.14
2019-05-23T05:03:17.904Z,10.30
2019-05-23T05:06:21.033Z,10.47
2019-05-23T05:09:27.882Z,10.58
2019-05-23T05:12:31.910Z,10.67
2019-05-23T05:15:37.710Z,10.73
2019-05-23T05:18:41.943Z,10.89
2019-05-23T05:21:46.065Z,10.69
2019-05-23T05:24:50.010Z,10.73
2019-05-23T05:27:54.089Z,10.66
2019-05-23T05:30:58.572Z,10.82
2019-05-23T05:34:02.739Z,10.86
2019-05-23T05:37:06.974Z,10.85
2019-05-23T05:40:11.614Z,10.96
2019-05-23T05:43:16.137Z,11.15
2019-05-23T05:46:20.356Z,11.33
2019-05-23T05:49:24.906Z,11.54
2019-05-23T05:52:29.335Z,11.75
2019-05-23T05:55:33.589Z,11.99
2019-05-23T05:58:37.637Z,11.88
2019-05-23T06:01:41.858Z,11.99
2019-05-23T06:04:46.595Z,12.19
2019-05-23T06:07:50.549Z,12.33
2019-05-23T06:10:54.564Z,12.53
2019-05-23T06:13:59.173Z,12.79
2019-05-23T06:17:07.079Z,12.73
2019-05-23T06:20:11.584Z,13.13
2019-05-23T06:23:17.926Z,13.60
2019-05-23T06:26:22.399Z,14.03
2019-05-23T06:29:26.827Z,14.27
2019-05-23T06:32:31.617Z,13.92
2019-05-23T06:35:36.153Z,13.69
2019-05-23T06:38:40.843Z,13.84
2019-05-23T06:41:44.814Z,14.34
2019-05-23T06:44:48.943Z,15.42
2019-05-23T06:47:52.976Z,16.94
2019-05-23T06:50:57.019Z,17.12
2019-05-23T06:54:01.236Z,17.50
2019-05-23T06:57:05.578Z,18.37
2019-05-23T07:00:09.937Z,18.34
2019-05-23T07:03:14.510Z,18.73
2019-05-23T07:06:21.690Z,18.90
2019-05-23T07:09:25.698Z,18.87
2019-05-23T07:12:29.801Z,18.61
2019-05-23T07:15:33.922Z,18.17
2019-05-23T07:18:39.931Z,18.16
2019-05-23T07:21:44.613Z,17.91
2019-05-23T07:24:58.069Z,17.63
2019-05-23T07:27:55.173Z,17.91
2019-05-23T07:30:59.527Z,18.39
2019-05-23T07:34:04.042Z,18.46
2019-05-23T07:37:08.878Z,18.20
2019-05-23T07:40:12.881Z,18.45
2019-05-23T07:43:17.221Z,18.98
2019-05-23T07:46:21.424Z,19.13
2019-05-23T07:49:25.950Z,19.19
2019-05-23T07:52:30.665Z,19.21
2019-05-23T07:55:42.001Z,19.23
2019-05-23T07:58:46.113Z,19.66
2019-05-23T08:01:58.682Z,19.70
2019-05-23T08:05:03.042Z,20.05
2019-05-23T08:08:07.923Z,19.99
2019-05-23T08:11:12.317Z,19.21
2019-05-23T08:14:16.521Z,18.59
2019-05-23T08:17:21.265Z,18.01
2019-05-23T08:20:27.016Z,17.59
2019-05-23T08:23:31.092Z,17.29
2019-05-23T08:26:35.243Z,17.04
2019-05-23T08:29:40.015Z,17.12
2019-05-23T08:32:44.436Z,17.25
2019-05-23T08:35:48.315Z,17.40
2019-05-23T08:38:52.397Z,17.51
2019-05-23T08:41:56.431Z,17.49
2019-05-23T08:45:00.661Z,17.51
2019-05-23T08:48:05.000Z,17.66
2019-05-23T08:51:09.305Z,17.72
2019-05-23T08:54:13.388Z,17.80
2019-05-23T08:57:17.955Z,17.94
2019-05-23T09:00:22.640Z,18.06
2019-05-23T09:03:26.760Z,18.17
2019-05-23T09:06:31.153Z,18.37
2019-05-23T09:09:35.501Z,18.62
2019-05-23T09:12:40.506Z,18.84
2019-05-23T09:15:44.754Z,19.02
2019-05-23T09:18:48.941Z,19.22
2019-05-23T09:21:57.851Z,19.52
2019-05-23T09:24:58.985Z,19.52
2019-05-23T09:28:03.983Z,19.62
2019-05-23T09:31:08.219Z,19.58
2019-05-23T09:34:12.497Z,19.67
2019-05-23T09:37:16.695Z,19.70
2019-05-23T09:40:20.785Z,19.80
2019-05-23T09:43:25.268Z,19.80
2019-05-23T09:46:29.578Z,19.95
2019-05-23T09:49:33.845Z,19.95
2019-05-23T09:52:37.884Z,19.95
2019-05-23T09:55:41.903Z,19.88
2019-05-23T09:58:46.414Z,20.08
2019-05-23T10:01:50.564Z,20.22
2019-05-23T10:04:54.640Z,20.20
2019-05-23T10:07:59.132Z,20.20
2019-05-23T10:11:03.227Z,20.35
2019-05-23T10:14:09.099Z,20.51
2019-05-23T10:17:13.234Z,20.63
2019-05-23T10:20:18.961Z,20.85
2019-05-23T10:23:23.301Z,21.05
2019-05-23T10:26:27.848Z,21.14
2019-05-23T10:29:31.851Z,21.41
2019-05-23T10:32:36.171Z,21.29
2019-05-23T10:35:40.183Z,21.30
2019-05-23T10:38:44.590Z,21.49
2019-05-23T10:41:48.743Z,21.60
2019-05-23T10:44:52.691Z,21.76
2019-05-23T10:47:57.403Z,21.94
2019-05-23T10:51:01.583Z,22.17
2019-05-23T10:54:05.731Z,22.32
2019-05-23T10:57:10.012Z,22.49
2019-05-23T11:00:17.487Z,22.66
2019-05-23T11:03:22.525Z,22.92
2019-05-23T11:06:27.013Z,23.19
2019-05-23T11:09:37.656Z,23.35
2019-05-23T11:12:37.126Z,23.38
2019-05-23T11:15:41.962Z,23.01
2019-05-23T11:18:45.973Z,23.18
2019-05-23T11:21:50.228Z,23.47
2019-05-23T11:24:54.438Z,23.74
2019-05-23T11:27:59.651Z,24.09
2019-05-23T11:31:05.615Z,24.39
2019-05-23T11:34:09.735Z,24.68
2019-05-23T11:37:13.916Z,24.88
2019-05-23T11:40:17.918Z,25.18
2019-05-23T11:43:21.940Z,25.27
2019-05-23T11:46:29.659Z,25.52
2019-05-23T11:49:34.547Z,25.40
2019-05-23T11:52:38.793Z,25.42
2019-05-23T11:55:42.870Z,25.34
2019-05-23T11:58:47.238Z,25.08
2019-05-23T12:02:02.091Z,25.34
2019-05-23T12:05:10.300Z,25.26
2019-05-23T12:08:14.466Z,25.05
2019-05-23T12:11:18.801Z,25.07
2019-05-23T12:14:22.818Z,25.14
2019-05-23T12:17:29.748Z,24.75
2019-05-23T12:20:34.066Z,24.42
2019-05-23T12:23:38.491Z,24.31
2019-05-23T12:26:42.502Z,24.15
2019-05-23T12:29:46.547Z,24.00
2019-05-23T12:32:50.845Z,23.63
2019-05-23T12:35:54.846Z,23.62
2019-05-23T12:38:59.383Z,23.87
2019-05-23T12:42:04.530Z,24.36
2019-05-23T12:45:09.246Z,24.67
2019-05-23T12:48:21.146Z,24.92
2019-05-23T12:51:27.678Z,25.20
2019-05-23T12:54:32.804Z,25.45
2019-05-23T12:57:37.049Z,25.67
2019-05-23T13:00:49.851Z,25.89
2019-05-23T13:03:54.163Z,26.07
2019-05-23T13:06:58.167Z,26.03
2019-05-23T13:10:02.284Z,25.80
2019-05-23T13:13:06.611Z,25.83
2019-05-23T13:16:10.617Z,25.53
2019-05-23T13:19:15.079Z,25.59
2019-05-23T13:22:19.250Z,25.47
2019-05-23T13:25:24.771Z,25.45
2019-05-23T13:28:29.764Z,25.13
2019-05-23T13:31:34.075Z,25.36
2019-05-23T13:34:38.254Z,25.19
2019-05-23T13:37:53.091Z,25.33
2019-05-23T13:40:48.803Z,25.70
2019-05-23T13:43:53.708Z,25.73
2019-05-23T13:46:57.902Z,25.74
2019-05-23T13:50:02.670Z,25.71
2019-05-23T13:53:06.752Z,25.55
2019-05-23T13:56:10.780Z,25.79
2019-05-23T13:59:15.102Z,25.94
2019-05-23T14:02:19.975Z,26.08
2019-05-23T14:05:24.867Z,26.16
2019-05-23T14:08:28.798Z,26.05
2019-05-23T14:11:32.860Z,25.81
2019-05-23T14:14:38.390Z,25.74
2019-05-23T14:17:44.677Z,25.16
2019-05-23T14:20:49.553Z,24.75
2019-05-23T14:23:53.569Z,24.18
2019-05-23T14:27:06.213Z,23.99
2019-05-23T14:30:21.532Z,23.61
2019-05-23T14:33:38.667Z,23.47
2019-05-23T14:36:55.838Z,23.32
2019-05-23T14:40:03.981Z,23.24
2019-05-23T14:43:21.795Z,23.20
2019-05-23T14:46:29.104Z,23.13
2019-05-23T14:53:22.219Z,22.91
2019-05-23T14:56:27.108Z,22.70
2019-05-23T14:59:32.134Z,22.57
2019-05-23T15:02:36.957Z,22.57
2019-05-23T15:05:42.156Z,22.62
2019-05-23T15:08:51.129Z,22.95
2019-05-23T15:11:54.448Z,23.30
2019-05-23T15:14:59.914Z,23.60
2019-05-23T15:18:08.570Z,23.62
2019-05-23T15:21:13.337Z,23.74
2019-05-23T15:24:19.571Z,23.89
2019-05-23T15:27:23.893Z,24.00
2019-05-23T15:30:28.336Z,24.01
2019-05-23T15:33:32.402Z,23.93
2019-05-23T15:36:36.717Z,23.92
2019-05-23T15:39:40.972Z,23.65
2019-05-23T15:42:44.977Z,23.66
2019-05-23T15:45:49.568Z,23.54
2019-05-23T15:48:53.606Z,23.55
2019-05-23T15:52:22.888Z,23.46
2019-05-23T15:55:41.991Z,23.42
2019-05-23T15:59:00.890Z,23.52
2019-05-23T16:02:12.535Z,23.69
2019-05-23T16:05:16.983Z,23.86
2019-05-23T16:08:21.169Z,23.86
2019-05-23T16:11:26.118Z,23.76
2019-05-23T16:14:31.565Z,23.81
2019-05-23T16:17:35.427Z,23.74
2019-05-23T16:20:39.804Z,23.76
2019-05-23T16:23:43.824Z,23.75
2019-05-23T16:26:48.156Z,23.71
2019-05-23T16:29:54.206Z,23.70
2019-05-23T16:32:58.224Z,23.83
2019-05-23T16:36:02.428Z,23.85
2019-05-23T16:39:08.566Z,23.66
2019-05-23T16:42:13.278Z,23.61
2019-05-23T16:45:17.483Z,23.71
2019-05-23T16:48:21.601Z,23.78
2019-05-23T16:51:26.054Z,23.75
2019-05-23T16:54:34.739Z,23.69
2019-05-23T16:57:50.135Z,23.57
2019-05-23T17:01:02.189Z,23.49
2019-05-23T17:04:25.359Z,23.48
2019-05-23T17:07:48.551Z,23.36
2019-05-23T17:11:00.740Z,23.15
2019-05-23T17:14:11.525Z,23.05
2019-05-23T17:18:00.565Z,22.90
2019-05-23T17:21:04.883Z,22.73
2019-05-23T17:24:22.081Z,22.53
2019-05-23T17:27:36.077Z,22.39
2019-05-23T17:30:45.331Z,22.27
2019-05-23T17:33:50.168Z,22.17
2019-05-23T17:36:54.173Z,21.98
2019-05-23T17:39:58.466Z,21.93
2019-05-23T17:43:02.858Z,21.83
2019-05-23T17:46:06.965Z,21.59
2019-05-23T17:49:11.478Z,21.50
2019-05-23T17:52:17.765Z,21.46
2019-05-23T17:55:22.001Z,21.45
2019-05-23T17:58:26.410Z,21.41
2019-05-23T18:01:32.114Z,21.31
2019-05-23T18:04:36.709Z,21.24
2019-05-23T18:07:41.717Z,21.14
2019-05-23T18:10:46.409Z,21.02
2019-05-23T18:13:51.116Z,20.83
2019-05-23T18:16:55.597Z,20.64
2019-05-23T18:19:59.864Z,20.39
2019-05-23T18:23:04.487Z,20.24
2019-05-23T18:26:21.265Z,20.12
2019-05-23T18:29:26.279Z,20.03
2019-05-23T18:32:31.391Z,19.93
2019-05-23T18:35:35.544Z,19.83
2019-05-23T18:38:39.841Z,19.78
2019-05-23T18:41:44.012Z,19.70
2019-05-23T18:44:49.741Z,19.57
2019-05-23T18:47:54.646Z,19.44
2019-05-23T18:50:59.305Z,19.30
2019-05-23T18:54:04.266Z,19.16
2019-05-23T18:57:08.984Z,18.94
2019-05-23T19:00:14.106Z,18.81
2019-05-23T19:03:18.966Z,18.72
2019-05-23T19:06:23.645Z,18.61
2019-05-23T19:09:28.306Z,18.52
2019-05-23T19:12:32.961Z,18.48
2019-05-23T19:15:37.431Z,18.39
2019-05-23T19:18:41.366Z,18.27
2019-05-23T19:21:45.625Z,18.17
2019-05-23T19:24:49.821Z,18.07
2019-05-23T19:27:54.362Z,17.96
2019-05-23T19:30:58.865Z,17.83
2019-05-23T19:34:03.112Z,17.69
2019-05-23T19:37:09.091Z,17.59
2019-05-23T19:40:15.150Z,17.49
2019-05-23T19:43:19.779Z,17.37
2019-05-23T19:46:24.073Z,17.25
2019-05-23T19:49:28.494Z,17.18
2019-05-23T19:52:32.668Z,17.10
2019-05-23T19:55:40.152Z,16.98
2019-05-23T19:58:44.158Z,16.92
2019-05-23T20:02:06.503Z,16.87
2019-05-23T20:05:16.840Z,16.71
2019-05-23T20:08:20.963Z,16.71
2019-05-23T20:11:25.437Z,16.65
2019-05-23T20:14:30.053Z,16.57
2019-05-23T20:17:34.476Z,16.47
2019-05-23T20:20:39.295Z,16.41
2019-05-23T20:23:43.567Z,16.30
2019-05-23T20:26:47.567Z,16.15
2019-05-23T20:29:51.512Z,16.02
2019-05-23T20:32:55.781Z,15.93
2019-05-23T20:36:01.671Z,15.83
2019-05-23T20:39:07.946Z,15.77
2019-05-23T20:42:12.368Z,15.74
2019-05-23T20:45:16.745Z,15.68
2019-05-23T20:48:20.997Z,15.60
2019-05-23T20:51:25.912Z,15.55
2019-05-23T20:54:33.351Z,15.41
2019-05-23T20:57:35.699Z,15.34
2019-05-23T21:00:57.953Z,15.28
2019-05-23T21:04:02.346Z,15.23
2019-05-23T21:07:06.451Z,15.16
2019-05-23T21:10:12.673Z,15.12
2019-05-23T21:13:16.892Z,15.11
2019-05-23T21:16:21.004Z,15.05
2019-05-23T21:19:25.288Z,14.98
2019-05-23T21:22:29.856Z,14.92
2019-05-23T21:25:34.583Z,14.89
2019-05-23T21:28:38.596Z,14.80
2019-05-23T21:31:42.676Z,14.73
2019-05-23T21:34:46.911Z,14.67
2019-05-23T21:37:51.563Z,14.65
2019-05-23T21:40:55.547Z,14.60
2019-05-23T21:44:00.692Z,14.54
2019-05-23T21:47:04.754Z,14.52
2019-05-23T21:50:09.570Z,14.46
2019-05-23T21:53:13.961Z,14.42
2019-05-23T21:56:18.024Z,14.32
2019-05-23T21:59:22.277Z,14.23
2019-05-23T22:02:32.378Z,14.15
2019-05-23T22:05:37.538Z,13.97
2019-05-23T22:08:41.899Z,13.88
2019-05-23T22:11:46.808Z,13.84
2019-05-23T22:14:51.027Z,13.83
2019-05-23T22:17:55.384Z,13.71
2019-05-23T22:20:59.661Z,13.67
2019-05-23T22:24:04.439Z,13.68
2019-05-23T22:27:11.270Z,13.67
2019-05-23T22:30:15.741Z,13.64
2019-05-23T22:33:21.797Z,13.58
2019-05-23T22:36:26.152Z,13.57
2019-05-23T22:39:30.368Z,13.56
2019-05-23T22:42:34.670Z,13.55
2019-05-23T22:45:39.082Z,13.52
2019-05-23T22:48:43.346Z,13.54
2019-05-23T22:51:47.779Z,13.50
2019-05-23T22:54:51.981Z,13.43
2019-05-23T22:57:56.320Z,13.38
2019-05-23T23:01:00.268Z,13.34
2019-05-23T23:04:04.454Z,13.29
2019-05-23T23:07:09.175Z,13.24
2019-05-23T23:10:14.930Z,13.18
2019-05-23T23:13:18.959Z,13.08
2019-05-23T23:16:22.909Z,13.02
2019-05-23T23:19:27.507Z,12.93
2019-05-23T23:22:31.879Z,12.85
2019-05-23T23:25:36.147Z,12.79
2019-05-23T23:28:40.656Z,12.73
2019-05-23T23:31:45.263Z,12.64
2019-05-23T23:34:49.288Z,12.57
2019-05-23T23:37:53.362Z,12.56
2019-05-23T23:40:57.465Z,12.54
2019-05-23T23:44:01.562Z,12.52
2019-05-23T23:47:24.480Z,12.51
2019-05-23T23:50:46.325Z,12.47
2019-05-23T23:54:08.161Z,12.45
2019-05-23T23:57:29.764Z,12.41
